createdAt,value
2019-03-31T00:02:00.949Z,22.00
2019-03-31T00:04:29.383Z,22.30
2019-03-31T00:06:57.855Z,32.13
2019-03-31T00:09:26.457Z,21.97
2019-03-31T00:11:54.977Z,26.70
2019-03-31T00:14:23.416Z,24.77
2019-03-31T00:16:52.636Z,25.43
2019-03-31T00:19:21.271Z,29.03
2019-03-31T00:21:49.701Z,28.07
2019-03-31T00:24:18.157Z,23.50
2019-03-31T00:26:46.639Z,26.87
2019-03-31T00:29:15.160Z,22.80
2019-03-31T00:31:43.686Z,25.87
2019-03-31T00:34:12.148Z,27.20
2019-03-31T00:36:40.591Z,25.43
2019-03-31T00:39:09.057Z,22.27
2019-03-31T00:41:37.512Z,25.47
2019-03-31T00:44:05.972Z,21.70
2019-03-31T00:46:34.491Z,21.93
2019-03-31T00:49:02.951Z,23.63
2019-03-31T00:51:31.393Z,20.50
2019-03-31T00:53:59.877Z,18.97
2019-03-31T00:56:28.374Z,21.70
2019-03-31T00:58:56.824Z,20.60
2019-03-31T01:01:38.595Z,21.77
2019-03-31T01:04:07.971Z,25.27
2019-03-31T01:06:37.426Z,19.57
2019-03-31T01:09:10.594Z,22.20
2019-03-31T01:11:39.106Z,22.83
2019-03-31T01:14:07.638Z,23.60
2019-03-31T01:16:36.160Z,20.97
2019-03-31T01:19:06.046Z,22.97
2019-03-31T01:21:34.490Z,22.60
2019-03-31T01:24:02.963Z,22.20
2019-03-31T01:26:31.459Z,23.63
2019-03-31T01:29:00.220Z,20.47
2019-03-31T01:31:29.152Z,20.37
2019-03-31T01:33:57.612Z,22.00
2019-03-31T01:36:26.395Z,20.33
2019-03-31T01:38:54.862Z,21.43
2019-03-31T01:41:23.302Z,20.57
2019-03-31T01:43:51.754Z,22.97
2019-03-31T01:46:21.242Z,19.97
2019-03-31T01:48:49.703Z,22.80
2019-03-31T01:51:18.155Z,19.70
2019-03-31T01:53:46.600Z,21.43
2019-03-31T01:56:15.330Z,20.33
2019-03-31T01:58:43.884Z,21.50
2019-03-31T02:01:14.028Z,20.40
2019-03-31T02:03:42.488Z,21.13
2019-03-31T02:06:10.998Z,19.43
2019-03-31T02:08:39.451Z,19.67
2019-03-31T02:11:07.891Z,19.57
2019-03-31T02:13:36.424Z,19.23
2019-03-31T02:16:05.011Z,24.33
2019-03-31T02:18:33.474Z,18.47
2019-03-31T02:21:02.173Z,18.80
2019-03-31T02:23:30.631Z,21.20
2019-03-31T02:25:59.069Z,18.87
2019-03-31T02:28:27.525Z,21.40
2019-03-31T02:30:55.987Z,20.80
2019-03-31T02:33:24.536Z,18.07
2019-03-31T02:35:52.978Z,19.27
2019-03-31T02:38:21.518Z,19.23
2019-03-31T02:40:49.961Z,18.33
2019-03-31T02:43:18.433Z,19.73
2019-03-31T02:45:46.866Z,18.47
2019-03-31T02:48:15.337Z,14.77
2019-03-31T02:50:50.843Z,20.63
2019-03-31T02:53:20.627Z,21.63
2019-03-31T02:55:49.688Z,19.37
2019-03-31T02:58:19.313Z,22.97
2019-03-31T03:00:48.124Z,20.50
2019-03-31T03:03:17.360Z,18.43
2019-03-31T03:05:46.448Z,18.73
2019-03-31T03:08:16.798Z,19.67
2019-03-31T03:10:45.251Z,21.80
2019-03-31T03:13:14.851Z,18.37
2019-03-31T03:15:57.875Z,22.57
2019-03-31T03:18:26.406Z,19.30
2019-03-31T03:20:54.857Z,22.27
2019-03-31T03:23:23.303Z,20.27
2019-03-31T03:25:56.218Z,22.40
2019-03-31T03:28:21.933Z,24.23
2019-03-31T03:30:50.539Z,22.60
2019-03-31T03:33:19.362Z,23.40
2019-03-31T03:35:47.904Z,23.43
2019-03-31T03:38:16.343Z,18.70
2019-03-31T03:40:44.790Z,21.37
2019-03-31T03:43:13.229Z,21.13
2019-03-31T03:45:41.696Z,23.83
2019-03-31T03:48:10.128Z,20.07
2019-03-31T03:50:38.600Z,22.93
2019-03-31T03:53:07.125Z,25.93
2019-03-31T03:55:35.574Z,20.27
2019-03-31T03:58:04.087Z,21.20
2019-03-31T04:00:32.597Z,20.30
2019-03-31T04:03:01.056Z,21.13
2019-03-31T04:05:29.501Z,21.70
2019-03-31T04:07:57.950Z,23.63
2019-03-31T04:10:44.337Z,22.83
2019-03-31T04:13:13.338Z,26.67
2019-03-31T04:15:42.062Z,24.63
2019-03-31T04:18:10.691Z,21.50
2019-03-31T04:20:39.697Z,22.17
2019-03-31T04:23:08.327Z,24.00
2019-03-31T04:25:36.800Z,23.17
2019-03-31T04:28:05.318Z,25.77
2019-03-31T04:30:33.773Z,25.07
2019-03-31T04:33:02.289Z,24.23
2019-03-31T04:35:30.821Z,24.37
2019-03-31T04:37:59.272Z,24.37
2019-03-31T04:40:27.818Z,28.00
2019-03-31T04:42:56.330Z,28.30
2019-03-31T04:45:24.822Z,24.13
2019-03-31T04:47:53.265Z,28.60
2019-03-31T04:50:21.705Z,25.83
2019-03-31T04:52:50.154Z,28.60
2019-03-31T04:55:18.612Z,27.90
2019-03-31T04:57:47.122Z,29.30
2019-03-31T05:00:15.702Z,25.73
2019-03-31T05:02:44.167Z,28.13
2019-03-31T05:05:12.600Z,26.77
2019-03-31T05:07:41.074Z,30.73
2019-03-31T05:10:09.638Z,30.43
2019-03-31T05:12:38.085Z,33.70
2019-03-31T05:15:06.770Z,36.73
2019-03-31T05:17:35.987Z,30.47
2019-03-31T05:20:05.893Z,34.57
2019-03-31T05:22:34.468Z,32.80
2019-03-31T05:25:03.136Z,36.50
2019-03-31T05:27:31.573Z,37.77
2019-03-31T05:30:00.034Z,37.03
2019-03-31T05:32:28.484Z,36.00
2019-03-31T05:34:56.923Z,36.53
2019-03-31T05:37:25.395Z,34.80
2019-03-31T05:39:53.852Z,37.93
2019-03-31T05:42:22.308Z,39.40
2019-03-31T05:44:50.764Z,38.93
2019-03-31T05:47:19.276Z,43.53
2019-03-31T05:49:47.710Z,44.53
2019-03-31T05:52:16.207Z,42.73
2019-03-31T05:54:44.719Z,43.07
2019-03-31T05:57:13.197Z,42.30
2019-03-31T05:59:41.637Z,44.97
2019-03-31T06:02:10.085Z,42.57
2019-03-31T06:04:38.531Z,41.47
2019-03-31T06:07:07.006Z,43.63
2019-03-31T06:09:35.437Z,44.77
2019-03-31T06:12:03.973Z,48.60
2019-03-31T06:14:32.420Z,45.73
2019-03-31T06:17:00.878Z,44.70
2019-03-31T06:19:29.339Z,44.83
2019-03-31T06:21:57.865Z,43.23
2019-03-31T06:24:26.481Z,49.37
2019-03-31T06:26:54.926Z,57.80
2019-03-31T06:29:23.389Z,50.83
2019-03-31T06:31:51.834Z,52.03
2019-03-31T06:34:20.304Z,56.90
2019-03-31T06:36:48.732Z,53.83
2019-03-31T06:39:17.207Z,58.20
2019-03-31T06:41:45.647Z,54.80
2019-03-31T06:44:14.106Z,55.87
2019-03-31T06:46:42.551Z,56.70
2019-03-31T06:49:11.018Z,51.97
2019-03-31T06:51:39.533Z,55.93
2019-03-31T06:54:08.003Z,52.23
2019-03-31T06:56:36.510Z,53.43
2019-03-31T06:59:04.974Z,54.57
2019-03-31T07:01:33.426Z,58.90
2019-03-31T07:04:01.902Z,60.47
2019-03-31T07:06:30.355Z,58.50
2019-03-31T07:08:58.878Z,49.97
2019-03-31T07:11:27.334Z,52.37
2019-03-31T07:13:55.790Z,49.13
2019-03-31T07:16:24.273Z,49.93
2019-03-31T07:18:52.715Z,54.57
2019-03-31T07:21:21.159Z,52.23
2019-03-31T07:23:49.668Z,47.40
2019-03-31T07:26:18.119Z,52.60
2019-03-31T07:28:46.575Z,53.13
2019-03-31T07:31:15.029Z,51.37
2019-03-31T07:33:43.556Z,53.63
2019-03-31T07:36:11.995Z,53.77
2019-03-31T07:38:40.473Z,56.00
2019-03-31T07:41:13.133Z,61.47
2019-03-31T07:43:39.233Z,55.10
2019-03-31T07:46:07.675Z,55.17
2019-03-31T07:48:36.195Z,58.67
2019-03-31T07:51:04.661Z,57.53
2019-03-31T07:53:33.093Z,53.17
2019-03-31T07:56:01.558Z,51.63
2019-03-31T07:58:29.995Z,55.80
2019-03-31T08:00:58.459Z,58.00
2019-03-31T08:03:26.911Z,55.53
2019-03-31T08:05:55.619Z,52.73
2019-03-31T08:08:24.059Z,62.70
2019-03-31T08:10:52.532Z,55.50
2019-03-31T08:13:20.979Z,51.13
2019-03-31T08:15:49.454Z,52.07
2019-03-31T08:18:17.967Z,54.30
2019-03-31T08:20:46.438Z,53.20
2019-03-31T08:23:14.888Z,55.57
2019-03-31T08:25:43.348Z,56.63
2019-03-31T08:28:11.799Z,55.57
2019-03-31T08:30:40.274Z,51.70
2019-03-31T08:33:08.803Z,54.60
2019-03-31T08:35:47.251Z,52.40
2019-03-31T08:38:07.443Z,61.57
2019-03-31T08:40:35.917Z,53.77
2019-03-31T08:43:04.376Z,57.27
2019-03-31T08:45:32.873Z,46.27
2019-03-31T08:48:01.324Z,55.57
2019-03-31T08:50:29.785Z,49.53
2019-03-31T08:52:58.248Z,55.70
2019-03-31T08:55:26.704Z,57.60
2019-03-31T08:57:55.148Z,51.00
2019-03-31T09:00:25.263Z,47.60
2019-03-31T09:02:53.698Z,55.50
2019-03-31T09:05:22.188Z,53.37
2019-03-31T09:07:50.701Z,54.23
2019-03-31T09:10:19.312Z,53.80
2019-03-31T09:12:48.643Z,55.63
2019-03-31T09:15:17.453Z,58.77
2019-03-31T09:17:45.954Z,54.73
2019-03-31T09:20:15.116Z,57.40
2019-03-31T09:22:43.574Z,57.63
2019-03-31T09:25:12.270Z,57.27
2019-03-31T09:27:40.867Z,58.00
2019-03-31T09:30:12.251Z,60.57
2019-03-31T09:32:40.731Z,63.37
2019-03-31T09:35:09.711Z,63.97
2019-03-31T09:37:38.315Z,56.80
2019-03-31T09:40:08.403Z,56.13
2019-03-31T09:42:36.869Z,53.53
2019-03-31T09:45:06.461Z,58.03
2019-03-31T09:47:35.061Z,58.93
2019-03-31T09:50:05.415Z,58.30
2019-03-31T09:52:33.877Z,59.10
2019-03-31T09:55:04.675Z,57.73
2019-03-31T09:57:33.337Z,56.97
2019-03-31T10:00:01.773Z,57.67
2019-03-31T10:02:30.247Z,53.30
2019-03-31T10:04:58.686Z,51.33
2019-03-31T10:07:27.464Z,49.67
2019-03-31T10:09:56.298Z,51.47
2019-03-31T10:12:24.762Z,54.67
2019-03-31T10:14:54.402Z,54.27
2019-03-31T10:17:22.953Z,54.97
2019-03-31T10:19:51.395Z,53.93
2019-03-31T10:22:19.853Z,49.77
2019-03-31T10:24:48.585Z,47.07
2019-03-31T10:27:17.083Z,48.87
2019-03-31T10:29:45.588Z,46.17
2019-03-31T10:32:14.120Z,50.17
2019-03-31T10:34:42.554Z,42.97
2019-03-31T10:37:10.997Z,49.00
2019-03-31T10:39:39.466Z,52.97
2019-03-31T10:42:07.924Z,50.17
2019-03-31T10:44:36.381Z,50.37
2019-03-31T10:47:05.028Z,48.40
2019-03-31T10:49:33.481Z,48.43
2019-03-31T10:52:01.922Z,49.77
2019-03-31T10:54:30.387Z,58.43
2019-03-31T10:56:58.842Z,48.17
2019-03-31T10:59:27.322Z,48.17
2019-03-31T11:01:55.766Z,49.47
2019-03-31T11:04:24.231Z,46.40
2019-03-31T11:06:58.860Z,52.20
2019-03-31T11:09:22.942Z,47.70
2019-03-31T11:11:51.410Z,54.13
2019-03-31T11:14:19.858Z,51.03
2019-03-31T11:16:48.339Z,50.17
2019-03-31T11:19:16.812Z,64.77
2019-03-31T11:21:46.946Z,48.77
2019-03-31T11:24:15.404Z,46.00
2019-03-31T11:26:43.874Z,50.37
2019-03-31T11:29:12.319Z,44.90
2019-03-31T11:31:40.782Z,44.90
2019-03-31T11:34:09.296Z,46.93
2019-03-31T11:36:37.759Z,40.23
2019-03-31T11:39:07.078Z,45.73
2019-03-31T11:41:35.515Z,42.50
2019-03-31T11:44:04.073Z,38.37
2019-03-31T11:46:32.547Z,38.63
2019-03-31T11:49:01.018Z,32.07
2019-03-31T11:51:29.464Z,35.07
2019-03-31T11:53:57.927Z,36.20
2019-03-31T11:56:26.395Z,34.93
2019-03-31T11:58:54.847Z,35.83
2019-03-31T12:01:23.369Z,36.23
2019-03-31T12:03:51.835Z,33.37
2019-03-31T12:06:20.311Z,31.33
2019-03-31T12:08:48.760Z,30.27
2019-03-31T12:11:17.288Z,28.10
2019-03-31T12:13:45.743Z,30.57
2019-03-31T12:16:14.276Z,24.83
2019-03-31T12:18:42.727Z,28.23
2019-03-31T12:21:11.201Z,22.10
2019-03-31T12:23:39.649Z,21.93
2019-03-31T12:26:08.124Z,22.17
2019-03-31T12:28:36.599Z,17.43
2019-03-31T12:31:05.097Z,21.90
2019-03-31T12:33:33.609Z,23.67
2019-03-31T12:36:02.112Z,22.23
2019-03-31T12:38:30.559Z,19.30
2019-03-31T12:40:59.054Z,18.87
2019-03-31T12:43:27.618Z,18.63
2019-03-31T12:45:56.487Z,17.87
2019-03-31T12:48:25.833Z,17.23
2019-03-31T12:50:54.341Z,17.67
2019-03-31T12:53:22.801Z,17.03
2019-03-31T12:55:59.825Z,17.83
2019-03-31T12:58:21.653Z,19.13
2019-03-31T13:00:50.931Z,15.50
2019-03-31T13:03:19.366Z,15.87
2019-03-31T13:05:47.826Z,14.60
2019-03-31T13:08:16.277Z,12.53
2019-03-31T13:10:44.724Z,18.80
2019-03-31T13:13:13.242Z,13.43
2019-03-31T13:15:41.726Z,14.23
2019-03-31T13:18:10.172Z,13.33
2019-03-31T13:20:38.696Z,51.27
2019-03-31T13:23:07.143Z,19.23
2019-03-31T13:25:35.614Z,17.07
2019-03-31T13:28:05.638Z,16.07
2019-03-31T13:30:34.534Z,15.33
2019-03-31T13:33:03.006Z,15.07
2019-03-31T13:35:31.476Z,13.30
2019-03-31T13:38:10.333Z,13.30
2019-03-31T13:40:30.110Z,13.30
2019-03-31T13:42:58.574Z,17.20
2019-03-31T13:45:27.084Z,14.63
2019-03-31T13:47:58.545Z,19.10
2019-03-31T13:50:25.724Z,20.03
2019-03-31T13:52:54.191Z,14.63
2019-03-31T13:55:22.646Z,12.90
2019-03-31T13:57:52.733Z,17.63
2019-03-31T14:00:35.666Z,17.00
2019-03-31T14:03:04.347Z,13.73
2019-03-31T14:05:32.806Z,14.47
2019-03-31T14:08:01.328Z,12.27
2019-03-31T14:10:29.854Z,17.47
2019-03-31T14:12:58.297Z,15.27
2019-03-31T14:15:26.815Z,14.40
2019-03-31T14:17:55.284Z,15.23
2019-03-31T14:20:23.835Z,15.00
2019-03-31T14:22:52.282Z,12.23
2019-03-31T14:25:20.729Z,14.17
2019-03-31T14:27:49.194Z,19.97
2019-03-31T14:30:17.863Z,13.53
2019-03-31T14:32:46.347Z,13.27
2019-03-31T14:35:14.932Z,11.67
2019-03-31T14:37:43.379Z,12.70
2019-03-31T14:40:11.972Z,12.20
2019-03-31T14:42:40.407Z,10.83
2019-03-31T14:45:10.563Z,8.67
2019-03-31T14:47:39.023Z,11.13
2019-03-31T14:50:07.615Z,9.73
2019-03-31T14:52:36.062Z,9.73
2019-03-31T14:55:05.571Z,9.83
2019-03-31T14:57:34.023Z,9.40
2019-03-31T15:00:13.947Z,10.97
2019-03-31T15:02:32.829Z,9.70
2019-03-31T15:05:01.303Z,11.57
2019-03-31T15:07:29.978Z,8.50
2019-03-31T15:09:58.443Z,11.30
2019-03-31T15:12:26.885Z,8.77
2019-03-31T15:14:55.365Z,9.13
2019-03-31T15:17:23.863Z,9.03
2019-03-31T15:19:52.337Z,7.27
2019-03-31T15:22:20.765Z,5.83
2019-03-31T15:24:49.235Z,8.03
2019-03-31T15:27:17.766Z,9.60
2019-03-31T15:29:46.225Z,6.50
2019-03-31T15:32:16.311Z,6.97
2019-03-31T15:34:44.769Z,5.90
2019-03-31T15:37:13.225Z,8.50
2019-03-31T15:39:41.699Z,7.47
2019-03-31T15:42:10.155Z,6.03
2019-03-31T15:44:38.630Z,6.63
2019-03-31T15:47:07.080Z,6.83
2019-03-31T15:49:35.557Z,4.77
2019-03-31T15:52:04.244Z,4.53
2019-03-31T15:54:32.675Z,5.83
2019-03-31T15:57:01.254Z,4.70
2019-03-31T15:59:29.763Z,5.27
2019-03-31T16:01:58.199Z,4.97
2019-03-31T16:04:26.657Z,4.63
2019-03-31T16:06:55.169Z,5.07
2019-03-31T16:09:24.263Z,4.90
2019-03-31T16:11:53.937Z,6.33
2019-03-31T16:14:22.774Z,6.33
2019-03-31T16:16:51.342Z,5.30
2019-03-31T16:19:19.826Z,10.70
2019-03-31T16:21:48.276Z,6.07
2019-03-31T16:24:18.353Z,4.23
2019-03-31T16:26:46.818Z,4.53
2019-03-31T16:29:15.314Z,4.53
2019-03-31T16:31:43.794Z,6.40
2019-03-31T16:34:12.244Z,6.97
2019-03-31T16:36:40.770Z,4.77
2019-03-31T16:39:09.279Z,5.13
2019-03-31T16:41:37.738Z,4.67
2019-03-31T16:44:06.168Z,6.23
2019-03-31T16:46:34.648Z,4.60
2019-03-31T16:49:03.177Z,4.80
2019-03-31T16:51:31.716Z,5.57
2019-03-31T16:54:00.156Z,5.43
2019-03-31T16:56:28.626Z,5.60
2019-03-31T16:58:57.077Z,6.43
2019-03-31T17:01:25.581Z,6.47
2019-03-31T17:03:54.027Z,6.07
2019-03-31T17:06:22.489Z,5.70
2019-03-31T17:08:51.089Z,5.60
2019-03-31T17:11:19.549Z,5.13
2019-03-31T17:13:48.025Z,7.80
2019-03-31T17:16:16.483Z,5.60
2019-03-31T17:18:45.037Z,5.93
2019-03-31T17:21:13.562Z,5.63
2019-03-31T17:23:42.020Z,5.43
2019-03-31T17:26:10.459Z,5.00
2019-03-31T17:28:38.915Z,5.97
2019-03-31T17:31:07.383Z,6.57
2019-03-31T17:33:35.833Z,9.43
2019-03-31T17:36:04.450Z,5.20
2019-03-31T17:38:33.102Z,8.87
2019-03-31T17:41:01.549Z,7.97
2019-03-31T17:43:30.014Z,7.77
2019-03-31T17:45:58.529Z,10.87
2019-03-31T17:48:27.014Z,8.33
2019-03-31T17:50:55.465Z,9.43
2019-03-31T17:53:23.936Z,8.50
2019-03-31T17:55:52.386Z,10.70
2019-03-31T17:58:20.864Z,9.27
2019-03-31T18:00:49.304Z,13.40
2019-03-31T18:03:17.764Z,15.50
2019-03-31T18:05:46.207Z,12.30
2019-03-31T18:08:14.730Z,10.30
2019-03-31T18:10:43.174Z,8.53
2019-03-31T18:13:11.630Z,10.63
2019-03-31T18:15:40.092Z,11.37
2019-03-31T18:18:08.655Z,14.23
2019-03-31T18:20:37.140Z,12.93
2019-03-31T18:23:05.598Z,11.83
2019-03-31T18:25:34.043Z,12.93
2019-03-31T18:28:02.509Z,13.43
2019-03-31T18:30:30.950Z,13.73
2019-03-31T18:32:59.395Z,10.90
2019-03-31T18:35:27.890Z,10.73
2019-03-31T18:37:56.337Z,10.37
2019-03-31T18:40:34.727Z,9.90
2019-03-31T18:42:54.962Z,11.70
2019-03-31T18:45:23.436Z,10.40
2019-03-31T18:47:51.936Z,14.67
2019-03-31T18:50:20.547Z,10.50
2019-03-31T18:52:49.006Z,13.17
2019-03-31T18:55:19.120Z,12.03
2019-03-31T18:57:55.057Z,11.93
2019-03-31T19:00:25.236Z,12.20
2019-03-31T19:03:11.583Z,12.93
2019-03-31T19:05:41.724Z,13.20
2019-03-31T19:08:11.811Z,11.20
2019-03-31T19:10:49.312Z,14.73
2019-03-31T19:13:22.742Z,13.40
2019-03-31T19:15:55.585Z,15.07
2019-03-31T19:18:25.748Z,11.13
2019-03-31T19:21:10.675Z,8.23
2019-03-31T19:23:35.745Z,8.97
2019-03-31T19:26:17.691Z,7.73
2019-03-31T19:28:50.281Z,6.83
2019-03-31T19:31:26.151Z,7.27
2019-03-31T19:34:08.181Z,7.70
2019-03-31T19:36:38.296Z,6.27
2019-03-31T19:39:22.250Z,6.50
2019-03-31T19:42:10.348Z,8.70
2019-03-31T19:44:52.105Z,7.40
2019-03-31T19:47:30.923Z,4.93
2019-03-31T19:50:06.979Z,4.43
2019-03-31T19:52:39.837Z,5.90
2019-03-31T19:55:24.492Z,4.60
2019-03-31T19:58:09.411Z,4.60
2019-03-31T20:00:48.434Z,4.77
2019-03-31T20:03:34.844Z,5.30
2019-03-31T20:06:04.918Z,5.00
2019-03-31T20:08:38.018Z,5.70
2019-03-31T20:11:11.027Z,3.80
2019-03-31T20:13:57.118Z,7.23
2019-03-31T20:16:32.722Z,6.10
2019-03-31T20:19:08.394Z,5.57
2019-03-31T20:21:41.258Z,5.00
2019-03-31T20:24:17.131Z,4.60
2019-03-31T20:26:59.089Z,3.90
2019-03-31T20:29:34.924Z,6.67
2019-03-31T20:32:21.330Z,8.30
2019-03-31T20:34:54.135Z,4.83
2019-03-31T20:37:24.214Z,3.63
2019-03-31T20:40:00.376Z,6.70
2019-03-31T20:42:42.279Z,3.97
2019-03-31T20:45:10.878Z,5.70
2019-03-31T20:47:39.314Z,5.63
2019-03-31T20:50:07.995Z,3.30
2019-03-31T20:52:36.470Z,4.30
2019-03-31T20:55:16.349Z,7.90
2019-03-31T20:57:35.955Z,2.67
2019-03-31T21:00:07.489Z,4.53
2019-03-31T21:02:35.961Z,4.90
2019-03-31T21:05:05.247Z,3.70
2019-03-31T21:07:33.699Z,3.37
2019-03-31T21:10:02.146Z,2.53
2019-03-31T21:12:30.599Z,5.63
2019-03-31T21:14:59.047Z,2.87
2019-03-31T21:17:27.478Z,3.40
2019-03-31T21:19:55.931Z,2.23
2019-03-31T21:22:24.365Z,4.23
2019-03-31T21:24:52.814Z,2.67
2019-03-31T21:27:21.245Z,3.97
2019-03-31T21:29:49.687Z,3.63
2019-03-31T21:32:18.191Z,5.10
2019-03-31T21:34:46.651Z,3.47
2019-03-31T21:37:15.081Z,4.17
2019-03-31T21:39:43.543Z,2.53
2019-03-31T21:42:11.990Z,4.97
2019-03-31T21:44:40.443Z,2.17
2019-03-31T21:47:08.884Z,2.77
2019-03-31T21:49:37.338Z,4.80
2019-03-31T21:52:05.902Z,2.03
2019-03-31T21:54:34.361Z,3.43
2019-03-31T21:57:02.884Z,5.03
2019-03-31T21:59:33.441Z,3.23
2019-03-31T22:02:01.586Z,1.87
2019-03-31T22:04:30.028Z,2.80
2019-03-31T22:06:58.461Z,2.93
2019-03-31T22:09:26.926Z,3.33
2019-03-31T22:11:55.350Z,3.90
2019-03-31T22:14:23.885Z,3.10
2019-03-31T22:16:52.366Z,3.53
2019-03-31T22:19:20.797Z,4.27
2019-03-31T22:21:49.257Z,3.57
2019-03-31T22:24:17.681Z,4.17
2019-03-31T22:26:46.305Z,3.77
2019-03-31T22:29:14.733Z,3.47
2019-03-31T22:31:43.214Z,3.47
2019-03-31T22:34:11.659Z,2.30
2019-03-31T22:36:40.196Z,3.27
2019-03-31T22:39:08.625Z,3.53
2019-03-31T22:41:37.075Z,5.13
2019-03-31T22:44:07.942Z,2.60
2019-03-31T22:46:36.374Z,3.77
2019-03-31T22:49:04.814Z,3.63
2019-03-31T22:51:35.023Z,5.30
2019-03-31T22:54:03.478Z,1.80
2019-03-31T22:56:31.947Z,1.80
2019-03-31T22:59:00.390Z,4.93
2019-03-31T23:01:28.915Z,1.97
2019-03-31T23:03:57.349Z,2.60
2019-03-31T23:06:25.798Z,5.97
2019-03-31T23:08:54.301Z,3.03
2019-03-31T23:11:22.758Z,3.63
2019-03-31T23:13:51.206Z,4.80
2019-03-31T23:16:19.664Z,3.00
2019-03-31T23:18:48.100Z,4.70
2019-03-31T23:21:16.556Z,4.07
2019-03-31T23:23:44.984Z,3.10
2019-03-31T23:26:13.519Z,3.23
2019-03-31T23:28:47.632Z,4.47
2019-03-31T23:31:18.725Z,5.40
2019-03-31T23:33:47.161Z,1.40
2019-03-31T23:36:15.616Z,2.40
2019-03-31T23:38:44.053Z,2.90
2019-03-31T23:41:12.515Z,3.73
2019-03-31T23:43:40.941Z,2.83
2019-03-31T23:46:09.396Z,3.53
2019-03-31T23:48:37.825Z,4.10
2019-03-31T23:51:06.283Z,4.03
2019-03-31T23:53:34.715Z,2.00
2019-03-31T23:56:03.241Z,4.07
2019-03-31T23:58:31.677Z,3.60
